createdAt,value
2018-01-06T00:00:31.433Z,995.15
2018-01-06T00:01:30.924Z,995.13
2018-01-06T00:02:31.291Z,995.13
2018-01-06T00:03:31.077Z,995.14
2018-01-06T00:04:31.208Z,995.13
2018-01-06T00:05:31.654Z,995.12
2018-01-06T00:06:31.099Z,995.11
2018-01-06T00:07:31.668Z,995.13
2018-01-06T00:08:31.107Z,995.12
2018-01-06T00:09:31.619Z,995.14
2018-01-06T00:10:31.225Z,995.19
2018-01-06T00:11:30.836Z,995.23
2018-01-06T00:12:31.171Z,995.25
2018-01-06T00:13:31.450Z,995.27
2018-01-06T00:14:30.966Z,995.26
2018-01-06T00:15:31.389Z,995.29
2018-01-06T00:16:30.842Z,995.31
2018-01-06T00:17:31.258Z,995.27
2018-01-06T00:18:31.699Z,995.24
2018-01-06T00:19:31.090Z,995.23
2018-01-06T00:20:31.543Z,995.28
2018-01-06T00:21:30.948Z,995.24
2018-01-06T00:22:31.250Z,995.17
2018-01-06T00:23:31.590Z,995.23
2018-01-06T00:24:31.069Z,995.24
2018-01-06T00:25:31.580Z,995.27
2018-01-06T00:26:31.101Z,995.27
2018-01-06T00:27:31.481Z,995.31
2018-01-06T00:28:30.768Z,995.24
2018-01-06T00:29:30.929Z,995.29
2018-01-06T00:30:31.290Z,995.27
2018-01-06T00:31:31.838Z,995.22
2018-01-06T00:32:30.868Z,995.25
2018-01-06T00:33:31.033Z,995.26
2018-01-06T00:34:30.075Z,995.21
2018-01-06T00:35:30.245Z,995.22
2018-01-06T00:36:30.494Z,995.14
2018-01-06T00:37:30.900Z,995.12
2018-01-06T00:38:30.135Z,995.13
2018-01-06T00:39:30.240Z,995.1
2018-01-06T00:40:30.405Z,995.1
2018-01-06T00:41:30.551Z,995.11
2018-01-06T00:42:30.776Z,995.07
2018-01-06T00:43:31.327Z,995.12
2018-01-06T00:44:30.535Z,995.12
2018-01-06T00:45:30.915Z,995.11
2018-01-06T00:46:30.331Z,995.14
2018-01-06T00:47:30.632Z,995.12
2018-01-06T00:48:31.049Z,995.12
2018-01-06T00:49:30.382Z,995.17
2018-01-06T00:50:30.460Z,995.2
2018-01-06T00:51:30.686Z,995.18
2018-01-06T00:52:30.923Z,995.16
2018-01-06T00:53:31.094Z,995.14
2018-01-06T00:54:30.282Z,995.14
2018-01-06T00:55:30.496Z,995.12
2018-01-06T00:56:30.642Z,995.15
2018-01-06T00:57:30.933Z,995.16
2018-01-06T00:58:31.082Z,995.16
2018-01-06T00:59:30.829Z,995.16
2018-01-06T01:00:31.097Z,995.17
2018-01-06T01:01:30.256Z,995.19
2018-01-06T01:02:30.465Z,995.17
2018-01-06T01:03:30.668Z,995.16
2018-01-06T01:04:30.991Z,995.25
2018-01-06T01:05:30.350Z,995.28
2018-01-06T01:06:30.860Z,995.32
2018-01-06T01:07:30.166Z,995.27
2018-01-06T01:08:30.415Z,995.29
2018-01-06T01:09:30.798Z,995.29
2018-01-06T01:10:30.349Z,995.3
2018-01-06T01:11:30.826Z,995.33
2018-01-06T01:12:30.146Z,995.31
2018-01-06T01:13:30.415Z,995.34
2018-01-06T01:14:30.608Z,995.36
2018-01-06T01:15:30.917Z,995.38
2018-01-06T01:16:30.194Z,995.39
2018-01-06T01:17:30.392Z,995.37
2018-01-06T01:18:30.652Z,995.4
2018-01-06T01:19:31.057Z,995.39
2018-01-06T01:20:30.354Z,995.42
2018-01-06T01:21:30.672Z,995.38
2018-01-06T01:22:30.737Z,995.4
2018-01-06T01:23:30.054Z,995.39
2018-01-06T01:24:30.350Z,995.36
2018-01-06T01:25:30.527Z,995.35
2018-01-06T01:26:30.859Z,995.39
2018-01-06T01:27:30.097Z,995.36
2018-01-06T01:28:30.314Z,995.42
2018-01-06T01:29:30.463Z,995.41
2018-01-06T01:30:30.780Z,995.47
2018-01-06T01:31:30.204Z,995.45
2018-01-06T01:32:30.397Z,995.47
2018-01-06T01:33:30.633Z,995.44
2018-01-06T01:34:30.736Z,995.43
2018-01-06T01:35:31.087Z,995.41
2018-01-06T01:36:30.389Z,995.43
2018-01-06T01:37:30.672Z,995.41
2018-01-06T01:38:30.950Z,995.41
2018-01-06T01:39:30.174Z,995.41
2018-01-06T01:40:30.430Z,995.4
2018-01-06T01:41:30.655Z,995.46
2018-01-06T01:42:30.934Z,995.45
2018-01-06T01:43:30.075Z,995.43
2018-01-06T01:44:30.400Z,995.42
2018-01-06T01:45:30.582Z,995.47
2018-01-06T01:46:30.763Z,995.45
2018-01-06T01:47:30.090Z,995.44
2018-01-06T01:48:30.341Z,995.46
2018-01-06T01:49:30.709Z,995.46
2018-01-06T01:50:30.172Z,995.45
2018-01-06T01:51:30.456Z,995.43
2018-01-06T01:52:30.748Z,995.42
2018-01-06T01:53:30.066Z,995.47
2018-01-06T01:54:30.262Z,995.45
2018-01-06T01:55:30.887Z,995.47
2018-01-06T01:56:30.144Z,995.45
2018-01-06T01:57:30.517Z,995.42
2018-01-06T01:58:30.667Z,995.43
2018-01-06T01:59:30.925Z,995.42
2018-01-06T02:00:30.242Z,995.42
2018-01-06T02:01:30.581Z,995.47
2018-01-06T02:04:30.053Z,995.48
2018-01-06T02:05:30.237Z,995.44
2018-01-06T02:06:30.426Z,995.45
2018-01-06T02:07:30.713Z,995.44
2018-01-06T02:08:30.887Z,995.39
2018-01-06T02:09:30.994Z,995.43
2018-01-06T02:10:31.139Z,995.43
2018-01-06T02:11:31.304Z,995.43
2018-01-06T02:12:30.541Z,995.41
2018-01-06T02:13:30.910Z,995.43
2018-01-06T02:14:30.359Z,995.47
2018-01-06T02:15:30.654Z,995.46
2018-01-06T02:16:30.919Z,995.43
2018-01-06T02:17:31.173Z,995.46
2018-01-06T02:18:30.447Z,995.42
2018-01-06T02:19:30.787Z,995.43
2018-01-06T02:20:30.904Z,995.4
2018-01-06T02:21:31.004Z,995.38
2018-01-06T02:22:31.151Z,995.35
2018-01-06T02:23:31.426Z,995.36
2018-01-06T02:24:30.950Z,995.36
2018-01-06T02:25:31.184Z,995.3
2018-01-06T02:26:30.416Z,995.32
2018-01-06T02:27:30.657Z,995.31
2018-01-06T02:28:30.860Z,995.32
2018-01-06T02:29:31.079Z,995.22
2018-01-06T02:30:31.237Z,995.25
2018-01-06T02:31:30.469Z,995.25
2018-01-06T02:32:30.491Z,995.24
2018-01-06T02:33:30.711Z,995.25
2018-01-06T02:34:30.810Z,995.27
2018-01-06T02:35:31.255Z,995.25
2018-01-06T02:36:30.724Z,995.25
2018-01-06T02:37:30.975Z,995.24
2018-01-06T02:38:31.052Z,995.21
2018-01-06T02:39:31.258Z,995.21
2018-01-06T02:40:31.531Z,995.18
2018-01-06T02:41:30.964Z,995.15
2018-01-06T02:42:31.301Z,995.17
2018-01-06T02:43:31.619Z,995.13
2018-01-06T02:44:30.958Z,995.11
2018-01-06T02:45:31.286Z,995.11
2018-01-06T02:46:30.834Z,995.16
2018-01-06T02:47:31.283Z,995.09
2018-01-06T02:48:31.431Z,995.11
2018-01-06T02:49:31.655Z,995.12
2018-01-06T02:50:30.949Z,995.11
2018-01-06T02:51:31.276Z,995.11
2018-01-06T02:52:31.495Z,995.15
2018-01-06T02:53:30.664Z,995.12
2018-01-06T02:54:30.908Z,995.1
2018-01-06T02:55:31.137Z,995.13
2018-01-06T02:56:31.601Z,995.1
2018-01-06T02:57:31.221Z,995.1
2018-01-06T02:58:31.747Z,995.08
2018-01-06T02:59:30.978Z,995.11
2018-01-06T03:00:31.221Z,995.14
2018-01-06T03:01:31.354Z,995.15
2018-01-06T03:02:31.410Z,995.18
2018-01-06T03:03:31.661Z,995.19
2018-01-06T03:04:31.103Z,995.19
2018-01-06T03:05:31.169Z,995.24
2018-01-06T03:06:31.584Z,995.19
2018-01-06T03:07:30.876Z,995.19
2018-01-06T03:08:31.201Z,995.16
2018-01-06T03:09:31.564Z,995.15
2018-01-06T03:10:30.778Z,995.15
2018-01-06T03:11:30.923Z,995.14
2018-01-06T03:12:31.095Z,995.11
2018-01-06T03:13:31.312Z,995.11
2018-01-06T03:14:30.625Z,995.1
2018-01-06T03:15:31.172Z,995.11
2018-01-06T03:16:31.424Z,995.14
2018-01-06T03:17:30.753Z,995.14
2018-01-06T03:18:30.909Z,995.16
2018-01-06T03:19:31.127Z,995.11
2018-01-06T03:20:31.297Z,995.1
2018-01-06T03:21:31.460Z,995.04
2018-01-06T03:22:30.761Z,995.04
2018-01-06T03:23:31.124Z,995
2018-01-06T03:24:31.226Z,995.01
2018-01-06T03:25:31.460Z,994.98
2018-01-06T03:26:30.875Z,994.99
2018-01-06T03:27:31.190Z,994.98
2018-01-06T03:28:31.477Z,994.96
2018-01-06T03:29:31.027Z,995
2018-01-06T03:30:31.367Z,995.07
2018-01-06T03:31:30.706Z,995.03
2018-01-06T03:32:30.940Z,995.04
2018-01-06T03:33:31.171Z,995.08
2018-01-06T03:34:31.460Z,995.08
2018-01-06T03:35:30.734Z,995.09
2018-01-06T03:36:31.034Z,995.12
2018-01-06T03:37:31.686Z,995.09
2018-01-06T03:38:30.853Z,995.1
2018-01-06T03:39:31.255Z,995.11
2018-01-06T03:40:30.655Z,995.13
2018-01-06T03:41:30.954Z,995.13
2018-01-06T03:42:31.095Z,995.11
2018-01-06T03:43:31.315Z,995.14
2018-01-06T03:44:30.490Z,995.1
2018-01-06T03:45:30.879Z,995.09
2018-01-06T03:46:31.157Z,995.09
2018-01-06T03:47:31.266Z,995.07
2018-01-06T03:48:30.375Z,995.03
2018-01-06T03:49:30.701Z,995.04
2018-01-06T03:50:30.797Z,995.04
2018-01-06T03:51:31.187Z,994.99
2018-01-06T03:52:31.247Z,994.99
2018-01-06T03:53:30.386Z,995
2018-01-06T03:54:30.614Z,994.99
2018-01-06T03:55:31.133Z,995.04
2018-01-06T03:56:30.512Z,995.03
2018-01-06T03:57:30.737Z,995.04
2018-01-06T03:58:30.990Z,995.09
2018-01-06T03:59:31.105Z,995.1
2018-01-06T04:00:31.288Z,995.1
2018-01-06T04:01:30.520Z,995.09
2018-01-06T04:02:30.627Z,995.12
2018-01-06T04:03:30.970Z,995.13
2018-01-06T04:04:30.330Z,995.12
2018-01-06T04:05:30.440Z,995.07
2018-01-06T04:06:30.572Z,995.05
2018-01-06T04:07:30.711Z,995.07
2018-01-06T04:08:30.937Z,995.04
2018-01-06T04:09:30.186Z,995.04
2018-01-06T04:10:30.337Z,995.04
2018-01-06T04:11:30.665Z,995.02
2018-01-06T04:12:30.013Z,995.06
2018-01-06T04:13:30.169Z,995.02
2018-01-06T04:14:30.354Z,995.06
2018-01-06T04:15:30.468Z,995.08
2018-01-06T04:16:30.810Z,995.07
2018-01-06T04:17:30.168Z,995.11
2018-01-06T04:18:30.362Z,995.1
2018-01-06T04:19:30.703Z,995.08
2018-01-06T04:20:29.901Z,995.06
2018-01-06T04:21:30.160Z,995.06
2018-01-06T04:22:30.325Z,995.1
2018-01-06T04:23:30.809Z,995.04
2018-01-06T04:24:30.112Z,995.1
2018-01-06T04:25:30.348Z,995.11
2018-01-06T04:26:30.648Z,995.1
2018-01-06T04:27:30.003Z,995.15
2018-01-06T04:28:30.341Z,995.13
2018-01-06T04:29:30.527Z,995.14
2018-01-06T04:30:30.689Z,995.15
2018-01-06T04:31:29.903Z,995.13
2018-01-06T04:32:30.038Z,995.08
2018-01-06T04:33:30.235Z,995.08
2018-01-06T04:34:30.539Z,995.04
2018-01-06T04:35:30.827Z,995.07
2018-01-06T04:36:30.013Z,995.08
2018-01-06T04:37:30.204Z,995.06
2018-01-06T04:38:30.468Z,995.13
2018-01-06T04:39:30.813Z,995.18
2018-01-06T04:40:30.020Z,995.26
2018-01-06T04:41:30.330Z,995.3
2018-01-06T04:42:30.472Z,995.29
2018-01-06T04:43:30.714Z,995.34
2018-01-06T04:44:30.220Z,995.34
2018-01-06T04:45:30.602Z,995.35
2018-01-06T04:46:30.726Z,995.4
2018-01-06T04:47:30.043Z,995.37
2018-01-06T04:48:30.455Z,995.35
2018-01-06T04:49:30.719Z,995.37
2018-01-06T04:50:30.169Z,995.39
2018-01-06T04:51:30.450Z,995.35
2018-01-06T04:52:30.586Z,995.38
2018-01-06T04:53:30.719Z,995.37
2018-01-06T04:54:29.840Z,995.41
2018-01-06T04:55:30.228Z,995.43
2018-01-06T04:56:30.333Z,995.42
2018-01-06T04:57:30.455Z,995.39
2018-01-06T04:58:30.728Z,995.4
2018-01-06T04:59:29.967Z,995.37
2018-01-06T05:00:30.107Z,995.4
2018-01-06T05:01:30.278Z,995.33
2018-01-06T05:02:30.526Z,995.32
2018-01-06T05:03:30.673Z,995.31
2018-01-06T05:04:29.926Z,995.33
2018-01-06T05:05:30.205Z,995.29
2018-01-06T05:06:30.917Z,995.32
2018-01-06T05:07:29.979Z,995.3
2018-01-06T05:08:30.242Z,995.3
2018-01-06T05:09:30.528Z,995.32
2018-01-06T05:10:30.779Z,995.3
2018-01-06T05:11:31.125Z,995.32
2018-01-06T05:12:31.261Z,995.34
2018-01-06T05:13:31.371Z,995.33
2018-01-06T05:14:30.745Z,995.36
2018-01-06T05:15:30.860Z,995.37
2018-01-06T05:16:31.031Z,995.39
2018-01-06T05:17:31.426Z,995.35
2018-01-06T05:18:31.821Z,995.41
2018-01-06T05:19:31.164Z,995.34
2018-01-06T05:20:31.486Z,995.38
2018-01-06T05:21:30.722Z,995.37
2018-01-06T05:22:30.882Z,995.31
2018-01-06T05:23:31.144Z,995.29
2018-01-06T05:24:31.313Z,995.29
2018-01-06T05:25:31.539Z,995.27
2018-01-06T05:26:30.733Z,995.31
2018-01-06T05:27:30.917Z,995.28
2018-01-06T05:28:31.374Z,995.24
2018-01-06T05:29:31.661Z,995.27
2018-01-06T05:30:30.920Z,995.24
2018-01-06T05:31:31.236Z,995.25
2018-01-06T05:32:31.330Z,995.24
2018-01-06T05:33:31.519Z,995.25
2018-01-06T05:34:30.689Z,995.23
2018-01-06T05:35:30.979Z,995.22
2018-01-06T05:36:31.372Z,995.21
2018-01-06T05:37:31.514Z,995.26
2018-01-06T05:38:31.682Z,995.22
2018-01-06T05:39:30.880Z,995.21
2018-01-06T05:40:30.991Z,995.24
2018-01-06T05:41:30.017Z,995.21
2018-01-06T05:42:30.161Z,995.2
2018-01-06T05:43:30.332Z,995.2
2018-01-06T05:44:30.671Z,995.22
2018-01-06T05:45:31.088Z,995.21
2018-01-06T05:46:30.339Z,995.22
2018-01-06T05:47:30.626Z,995.23
2018-01-06T05:48:30.980Z,995.23
2018-01-06T05:49:30.398Z,995.21
2018-01-06T05:50:30.571Z,995.2
2018-01-06T05:51:30.987Z,995.23
2018-01-06T05:52:30.355Z,995.23
2018-01-06T05:53:30.635Z,995.22
2018-01-06T05:54:30.949Z,995.21
2018-01-06T05:55:30.145Z,995.2
2018-01-06T05:56:30.648Z,995.2
2018-01-06T05:57:30.709Z,995.24
2018-01-06T05:58:30.981Z,995.19
2018-01-06T05:59:30.280Z,995.21
2018-01-06T06:00:30.522Z,995.22
2018-01-06T06:01:29.974Z,995.26
2018-01-06T06:02:30.352Z,995.27
2018-01-06T06:03:30.503Z,995.27
2018-01-06T06:04:30.771Z,995.26
2018-01-06T06:05:30.236Z,995.29
2018-01-06T06:06:30.520Z,995.3
2018-01-06T06:07:30.747Z,995.3
2018-01-06T06:08:30.069Z,995.31
2018-01-06T06:09:30.353Z,995.26
2018-01-06T06:10:30.385Z,995.28
2018-01-06T06:11:30.652Z,995.23
2018-01-06T06:12:31.058Z,995.24
2018-01-06T06:13:31.560Z,995.26
2018-01-06T06:14:30.823Z,995.3
2018-01-06T06:15:31.020Z,995.35
2018-01-06T06:16:31.264Z,995.31
2018-01-06T06:17:30.628Z,995.29
2018-01-06T06:18:31.067Z,995.31
2018-01-06T06:19:31.227Z,995.33
2018-01-06T06:20:31.444Z,995.29
2018-01-06T06:21:30.637Z,995.32
2018-01-06T06:22:31.055Z,995.33
2018-01-06T06:23:31.407Z,995.34
2018-01-06T06:24:30.543Z,995.34
2018-01-06T06:25:30.727Z,995.33
2018-01-06T06:26:30.841Z,995.35
2018-01-06T06:27:31.044Z,995.33
2018-01-06T06:28:31.371Z,995.32
2018-01-06T06:29:30.691Z,995.31
2018-01-06T06:30:30.891Z,995.32
2018-01-06T06:31:31.002Z,995.31
2018-01-06T06:32:31.241Z,995.34
2018-01-06T06:33:31.340Z,995.35
2018-01-06T06:34:30.714Z,995.35
2018-01-06T06:35:31.118Z,995.36
2018-01-06T06:36:30.881Z,995.41
2018-01-06T06:37:31.306Z,995.42
2018-01-06T06:38:30.699Z,995.45
2018-01-06T06:39:30.891Z,995.44
2018-01-06T06:40:31.206Z,995.38
2018-01-06T06:41:31.289Z,995.41
2018-01-06T06:42:30.359Z,995.39
2018-01-06T06:43:30.404Z,995.38
2018-01-06T06:44:30.654Z,995.42
2018-01-06T06:45:31.039Z,995.49
2018-01-06T06:46:30.293Z,995.52
2018-01-06T06:47:30.381Z,995.55
2018-01-06T06:48:30.386Z,995.54
2018-01-06T06:49:30.393Z,995.55
2018-01-06T06:50:30.723Z,995.48
2018-01-06T06:51:30.974Z,995.51
2018-01-06T06:52:31.185Z,995.49
2018-01-06T06:53:30.319Z,995.51
2018-01-06T06:54:30.491Z,995.52
2018-01-06T06:55:30.685Z,995.47
2018-01-06T06:56:31.432Z,995.46
2018-01-06T06:57:30.798Z,995.43
2018-01-06T06:58:31.017Z,995.49
2018-01-06T06:59:31.144Z,995.5
2018-01-06T07:00:30.335Z,995.49
2018-01-06T07:01:30.569Z,995.48
2018-01-06T07:02:31.084Z,995.5
2018-01-06T07:03:30.268Z,995.49
2018-01-06T07:04:30.381Z,995.5
2018-01-06T07:05:30.517Z,995.49
2018-01-06T07:06:30.729Z,995.5
2018-01-06T07:07:31.096Z,995.52
2018-01-06T07:08:31.396Z,995.49
2018-01-06T07:09:30.470Z,995.48
2018-01-06T07:10:30.622Z,995.44
2018-01-06T07:11:30.675Z,995.4
2018-01-06T07:12:30.772Z,995.38
2018-01-06T07:13:29.766Z,995.38
2018-01-06T07:14:30.116Z,995.36
2018-01-06T07:15:30.460Z,995.38
2018-01-06T07:16:30.731Z,995.37
2018-01-06T07:17:30.181Z,995.4
2018-01-06T07:18:30.313Z,995.39
2018-01-06T07:19:30.564Z,995.4
2018-01-06T07:20:30.774Z,995.45
2018-01-06T07:21:29.983Z,995.49
2018-01-06T07:22:30.092Z,995.49
2018-01-06T07:23:30.367Z,995.51
2018-01-06T07:24:30.773Z,995.54
2018-01-06T07:25:29.929Z,995.52
2018-01-06T07:26:30.241Z,995.56
2018-01-06T07:27:30.518Z,995.62
2018-01-06T07:28:29.901Z,995.57
2018-01-06T07:29:29.912Z,995.6
2018-01-06T07:30:30.050Z,995.65
2018-01-06T07:31:30.240Z,995.63
2018-01-06T07:32:30.558Z,995.65
2018-01-06T07:33:29.933Z,995.68
2018-01-06T07:34:30.226Z,995.67
2018-01-06T07:35:30.687Z,995.69
2018-01-06T07:36:29.975Z,995.73
2018-01-06T07:37:30.138Z,995.72
2018-01-06T07:38:30.301Z,995.71
2018-01-06T07:39:29.904Z,995.75
2018-01-06T07:40:30.293Z,995.69
2018-01-06T07:41:30.544Z,995.67
2018-01-06T07:42:30.505Z,995.71
2018-01-06T07:43:30.644Z,995.76
2018-01-06T07:44:30.779Z,995.81
2018-01-06T07:45:30.980Z,995.84
2018-01-06T07:46:31.213Z,995.87
2018-01-06T07:47:31.552Z,995.9
2018-01-06T07:48:31.554Z,995.91
2018-01-06T07:49:30.883Z,995.9
2018-01-06T07:50:31.301Z,995.89
2018-01-06T07:51:30.606Z,995.89
2018-01-06T07:52:30.870Z,995.89
2018-01-06T07:53:31.422Z,995.94
2018-01-06T07:54:30.729Z,995.93
2018-01-06T07:55:30.931Z,995.92
2018-01-06T07:56:31.131Z,995.96
2018-01-06T07:57:31.436Z,995.99
2018-01-06T07:58:31.496Z,995.99
2018-01-06T07:59:30.695Z,996.03
2018-01-06T08:00:31.036Z,996.04
2018-01-06T08:01:31.373Z,996.07
2018-01-06T08:02:30.708Z,996.06
2018-01-06T08:03:30.919Z,996.08
2018-01-06T08:04:31.191Z,996.09
2018-01-06T08:05:31.289Z,996.07
2018-01-06T08:06:31.543Z,996.09
2018-01-06T08:07:31.593Z,996.07
2018-01-06T08:08:30.717Z,996.06
2018-01-06T08:09:31.108Z,996.09
2018-01-06T08:10:31.398Z,996.05
2018-01-06T08:11:31.040Z,996.05
2018-01-06T08:12:31.327Z,996.1
2018-01-06T08:13:31.584Z,996.13
2018-01-06T08:14:30.955Z,996.13
2018-01-06T08:15:31.368Z,996.13
2018-01-06T08:16:30.677Z,996.16
2018-01-06T08:17:30.959Z,996.19
2018-01-06T08:18:31.421Z,996.16
2018-01-06T08:19:30.959Z,996.17
2018-01-06T08:20:31.194Z,996.22
2018-01-06T08:21:31.305Z,996.25
2018-01-06T08:22:31.242Z,996.25
2018-01-06T08:23:30.853Z,996.23
2018-01-06T08:24:31.256Z,996.28
2018-01-06T08:25:30.632Z,996.28
2018-01-06T08:26:30.808Z,996.31
2018-01-06T08:27:31.088Z,996.32
2018-01-06T08:28:31.463Z,996.32
2018-01-06T08:29:30.746Z,996.33
2018-01-06T08:30:31.073Z,996.35
2018-01-06T08:31:31.418Z,996.39
2018-01-06T08:32:31.547Z,996.42
2018-01-06T08:33:31.010Z,996.42
2018-01-06T08:34:31.448Z,996.47
2018-01-06T08:35:30.819Z,996.47
2018-01-06T08:36:31.268Z,996.47
2018-01-06T08:37:30.611Z,996.49
2018-01-06T08:38:30.975Z,996.5
2018-01-06T08:39:31.317Z,996.49
2018-01-06T08:40:30.576Z,996.5
2018-01-06T08:41:30.744Z,996.48
2018-01-06T08:42:31.205Z,996.49
2018-01-06T08:43:30.670Z,996.51
2018-01-06T08:44:31.253Z,996.47
2018-01-06T08:45:30.329Z,996.49
2018-01-06T08:46:30.428Z,996.49
2018-01-06T08:47:30.645Z,996.48
2018-01-06T08:48:31.086Z,996.49
2018-01-06T08:49:30.431Z,996.52
2018-01-06T08:50:30.761Z,996.52
2018-01-06T08:51:30.356Z,996.48
2018-01-06T08:52:30.633Z,996.5
2018-01-06T08:53:31.064Z,996.54
2018-01-06T08:54:30.634Z,996.53
2018-01-06T08:55:30.987Z,996.54
2018-01-06T08:56:30.239Z,996.52
2018-01-06T08:57:30.519Z,996.58
2018-01-06T08:58:30.878Z,996.58
2018-01-06T08:59:31.025Z,996.56
2018-01-06T09:00:31.174Z,996.57
2018-01-06T09:01:30.425Z,996.58
2018-01-06T09:02:30.530Z,996.57
2018-01-06T09:03:30.629Z,996.58
2018-01-06T09:04:30.741Z,996.59
2018-01-06T09:05:31.201Z,996.6
2018-01-06T09:06:30.419Z,996.62
2018-01-06T09:07:30.817Z,996.63
2018-01-06T09:08:31.258Z,996.62
2018-01-06T09:09:30.518Z,996.67
2018-01-06T09:10:30.754Z,996.68
2018-01-06T09:11:30.951Z,996.72
2018-01-06T09:12:30.399Z,996.66
2018-01-06T09:13:30.915Z,996.73
2018-01-06T09:14:31.294Z,996.73
2018-01-06T09:15:30.839Z,996.73
2018-01-06T09:16:30.079Z,996.76
2018-01-06T09:17:30.305Z,996.77
2018-01-06T09:18:30.568Z,996.77
2018-01-06T09:19:29.861Z,996.8
2018-01-06T09:20:30.377Z,996.84
2018-01-06T09:21:30.790Z,996.83
2018-01-06T09:22:30.059Z,996.85
2018-01-06T09:23:30.319Z,996.89
2018-01-06T09:24:30.618Z,996.88
2018-01-06T09:25:29.993Z,996.91
2018-01-06T09:26:30.458Z,996.88
2018-01-06T09:27:30.772Z,996.88
2018-01-06T09:28:30.087Z,996.89
2018-01-06T09:29:31.157Z,996.92
2018-01-06T09:30:30.461Z,996.94
2018-01-06T09:31:32.236Z,996.93
2018-01-06T09:32:32.968Z,996.96
2018-01-06T09:33:30.118Z,996.95
2018-01-06T09:34:29.900Z,996.97
2018-01-06T09:35:32.962Z,996.99
2018-01-06T09:36:30.735Z,996.99
2018-01-06T09:37:30.904Z,996.99
2018-01-06T09:38:30.285Z,996.97
2018-01-06T09:39:30.808Z,997.02
2018-01-06T09:40:30.190Z,996.98
2018-01-06T09:41:30.906Z,997.01
2018-01-06T09:42:30.234Z,996.97
2018-01-06T09:43:30.524Z,996.98
2018-01-06T09:44:29.889Z,997.02
2018-01-06T09:45:30.152Z,997.01
2018-01-06T09:46:30.620Z,997
2018-01-06T09:47:31.088Z,997
2018-01-06T09:48:31.426Z,996.97
2018-01-06T09:49:31.587Z,996.96
2018-01-06T09:50:31.034Z,996.95
2018-01-06T09:51:30.966Z,997.01
2018-01-06T09:52:31.705Z,996.94
2018-01-06T09:53:30.949Z,996.97
2018-01-06T09:54:31.148Z,997
2018-01-06T09:55:31.357Z,996.96
2018-01-06T09:56:31.489Z,996.94
2018-01-06T09:57:30.941Z,996.97
2018-01-06T09:58:31.211Z,996.91
2018-01-06T09:59:31.460Z,996.94
2018-01-06T10:00:31.593Z,996.94
2018-01-06T10:01:31.086Z,996.98
2018-01-06T10:02:31.121Z,996.96
2018-01-06T10:03:31.337Z,996.94
2018-01-06T10:04:31.540Z,997.02
2018-01-06T10:05:30.805Z,996.97
2018-01-06T10:06:30.938Z,996.96
2018-01-06T10:07:31.037Z,996.94
2018-01-06T10:08:31.465Z,996.95
2018-01-06T10:09:31.518Z,996.94
2018-01-06T10:10:31.550Z,996.94
2018-01-06T10:11:30.772Z,996.93
2018-01-06T10:12:31.003Z,996.94
2018-01-06T10:13:31.293Z,996.97
2018-01-06T10:14:31.464Z,996.96
2018-01-06T10:15:30.706Z,996.95
2018-01-06T10:16:31.077Z,996.97
2018-01-06T10:17:30.244Z,996.98
2018-01-06T10:18:30.631Z,996.97
2018-01-06T10:19:30.143Z,997.02
2018-01-06T10:20:30.280Z,997.04
2018-01-06T10:21:30.734Z,997.01
2018-01-06T10:22:30.944Z,997.03
2018-01-06T10:23:30.272Z,997.04
2018-01-06T10:24:30.519Z,997.05
2018-01-06T10:25:30.799Z,997.07
2018-01-06T10:26:30.166Z,997.06
2018-01-06T10:27:30.365Z,997.05
2018-01-06T10:28:30.637Z,997.05
2018-01-06T10:29:30.299Z,997.05
2018-01-06T10:30:30.593Z,997.06
2018-01-06T10:31:30.913Z,997.07
2018-01-06T10:32:30.194Z,997.05
2018-01-06T10:33:30.366Z,997.04
2018-01-06T10:34:30.553Z,996.99
2018-01-06T10:35:30.654Z,997
2018-01-06T10:36:30.929Z,996.96
2018-01-06T10:37:30.243Z,996.94
2018-01-06T10:38:31.654Z,996.94
2018-01-06T10:39:30.910Z,996.95
2018-01-06T10:40:30.508Z,996.93
2018-01-06T10:41:30.998Z,996.94
2018-01-06T10:42:30.341Z,996.96
2018-01-06T10:43:30.523Z,996.97
2018-01-06T10:44:30.611Z,996.92
2018-01-06T10:45:30.925Z,996.88
2018-01-06T10:46:30.849Z,996.89
2018-01-06T10:47:31.120Z,996.91
2018-01-06T10:48:30.542Z,996.91
2018-01-06T10:49:30.906Z,996.9
2018-01-06T10:50:30.151Z,996.88
2018-01-06T10:51:30.383Z,996.92
2018-01-06T10:52:30.709Z,996.89
2018-01-06T10:53:30.954Z,996.87
2018-01-06T10:54:30.114Z,996.88
2018-01-06T10:55:30.411Z,996.87
2018-01-06T10:56:30.741Z,996.85
2018-01-06T10:57:30.841Z,996.85
2018-01-06T10:58:30.963Z,996.82
2018-01-06T10:59:30.224Z,996.83
2018-01-06T11:00:30.349Z,996.88
2018-01-06T11:01:30.581Z,996.9
2018-01-06T11:02:31.053Z,996.85
2018-01-06T11:03:30.258Z,996.84
2018-01-06T11:04:30.385Z,996.78
2018-01-06T11:05:30.461Z,996.79
2018-01-06T11:06:30.564Z,996.79
2018-01-06T11:07:30.563Z,996.81
2018-01-06T11:08:30.446Z,996.8
2018-01-06T11:09:30.458Z,996.76
2018-01-06T11:10:30.725Z,996.71
2018-01-06T11:11:31.028Z,996.73
2018-01-06T11:12:30.509Z,996.7
2018-01-06T11:13:30.787Z,996.72
2018-01-06T11:14:30.106Z,996.69
2018-01-06T11:15:30.390Z,996.7
2018-01-06T11:16:30.790Z,996.69
2018-01-06T11:17:30.073Z,996.72
2018-01-06T11:18:30.195Z,996.68
2018-01-06T11:19:30.441Z,996.72
2018-01-06T11:20:30.662Z,996.7
2018-01-06T11:21:30.788Z,996.68
2018-01-06T11:22:31.126Z,996.68
2018-01-06T11:23:30.543Z,996.67
2018-01-06T11:24:30.906Z,996.69
2018-01-06T11:25:30.292Z,996.68
2018-01-06T11:26:30.611Z,996.68
2018-01-06T11:27:30.771Z,996.63
2018-01-06T11:28:30.968Z,996.64
2018-01-06T11:29:30.271Z,996.58
2018-01-06T11:30:30.378Z,996.63
2018-01-06T11:31:30.320Z,996.56
2018-01-06T11:32:30.354Z,996.58
2018-01-06T11:33:30.693Z,996.58
2018-01-06T11:34:31.051Z,996.51
2018-01-06T11:35:30.313Z,996.54
2018-01-06T11:36:30.607Z,996.54
2018-01-06T11:37:30.815Z,996.53
2018-01-06T11:38:30.923Z,996.57
2018-01-06T11:39:30.770Z,996.57
2018-01-06T11:40:32.985Z,996.58
2018-01-06T11:41:30.945Z,996.58
2018-01-06T11:42:32.663Z,996.51
2018-01-06T11:43:30.463Z,996.49
2018-01-06T11:44:30.760Z,996.49
2018-01-06T11:45:30.265Z,996.46
2018-01-06T11:46:30.880Z,996.47
2018-01-06T11:47:30.304Z,996.47
2018-01-06T11:48:30.641Z,996.39
2018-01-06T11:49:30.926Z,996.4
2018-01-06T11:50:31.171Z,996.38
2018-01-06T11:51:30.566Z,996.32
2018-01-06T11:52:30.913Z,996.31
2018-01-06T11:53:31.443Z,996.26
2018-01-06T11:54:30.817Z,996.26
2018-01-06T11:55:31.134Z,996.23
2018-01-06T11:56:30.629Z,996.24
2018-01-06T11:57:31.122Z,996.24
2018-01-06T11:58:31.330Z,996.22
2018-01-06T11:59:31.304Z,996.24
2018-01-06T12:00:31.472Z,996.26
2018-01-06T12:01:30.670Z,996.3
2018-01-06T12:02:30.675Z,996.3
2018-01-06T12:03:30.943Z,996.35
2018-01-06T12:04:31.246Z,996.36
2018-01-06T12:05:31.301Z,996.39
2018-01-06T12:06:30.835Z,996.4
2018-01-06T12:07:30.889Z,996.43
2018-01-06T12:08:31.065Z,996.43
2018-01-06T12:09:31.297Z,996.4
2018-01-06T12:10:30.565Z,996.47
2018-01-06T12:11:30.693Z,996.43
2018-01-06T12:12:30.812Z,996.46
2018-01-06T12:13:31.079Z,996.43
2018-01-06T12:14:31.468Z,996.47
2018-01-06T12:15:30.758Z,996.47
2018-01-06T12:16:31.035Z,996.43
2018-01-06T12:17:31.331Z,996.46
2018-01-06T12:18:30.763Z,996.46
2018-01-06T12:19:31.506Z,996.46
2018-01-06T12:20:30.973Z,996.48
2018-01-06T12:21:33.465Z,996.45
2018-01-06T12:22:31.088Z,996.48
2018-01-06T12:23:31.195Z,996.52
2018-01-06T12:24:30.779Z,996.52
2018-01-06T12:25:30.908Z,996.51
2018-01-06T12:26:31.309Z,996.48
2018-01-06T12:27:31.737Z,996.47
2018-01-06T12:28:31.127Z,996.5
2018-01-06T12:29:31.496Z,996.47
2018-01-06T12:30:31.415Z,996.48
2018-01-06T12:31:30.712Z,996.47
2018-01-06T12:32:31.326Z,996.44
2018-01-06T12:33:31.060Z,996.38